createdAt,value
2023-04-16T00:00:33.882Z,4.30
2023-04-16T00:03:00.394Z,4.13
2023-04-16T00:05:26.924Z,3.74
2023-04-16T00:07:53.215Z,3.51
2023-04-16T00:10:19.512Z,3.60
2023-04-16T00:12:45.871Z,3.59
2023-04-16T00:15:12.175Z,3.41
2023-04-16T00:17:38.528Z,3.68
2023-04-16T00:20:04.908Z,3.55
2023-04-16T00:22:31.213Z,3.68
2023-04-16T00:24:57.509Z,3.66
2023-04-16T00:27:23.820Z,3.54
2023-04-16T00:29:50.110Z,3.55
2023-04-16T00:32:16.402Z,3.62
2023-04-16T00:34:42.711Z,3.74
2023-04-16T00:37:08.998Z,3.63
2023-04-16T00:39:35.295Z,3.72
2023-04-16T00:42:01.626Z,3.69
2023-04-16T00:44:27.977Z,3.66
2023-04-16T00:46:54.279Z,3.84
2023-04-16T00:49:20.601Z,4.23
2023-04-16T00:51:46.887Z,3.99
2023-04-16T00:54:13.173Z,3.90
2023-04-16T00:56:39.478Z,3.88
2023-04-16T00:59:05.769Z,4.14
2023-04-16T01:01:32.131Z,4.01
2023-04-16T01:03:58.515Z,3.89
2023-04-16T01:06:24.868Z,3.77
2023-04-16T01:08:51.242Z,4.07
2023-04-16T01:11:17.617Z,3.71
2023-04-16T01:13:43.948Z,3.75
2023-04-16T01:16:10.322Z,3.82
2023-04-16T01:18:38.636Z,3.76
2023-04-16T01:21:04.935Z,3.75
2023-04-16T01:23:31.269Z,3.60
2023-04-16T01:25:57.593Z,3.36
2023-04-16T01:28:23.896Z,3.75
2023-04-16T01:30:50.203Z,3.78
2023-04-16T01:33:16.532Z,3.95
2023-04-16T01:35:42.827Z,4.05
2023-04-16T01:38:09.107Z,4.35
2023-04-16T01:40:35.424Z,4.42
2023-04-16T01:43:01.722Z,4.14
2023-04-16T01:45:28.032Z,3.89
2023-04-16T01:47:54.396Z,4.41
2023-04-16T01:50:20.742Z,4.54
2023-04-16T01:52:47.034Z,4.19
2023-04-16T01:55:13.361Z,4.10
2023-04-16T01:57:39.660Z,4.08
2023-04-16T02:00:05.955Z,3.92
2023-04-16T02:02:32.428Z,3.47
2023-04-16T02:04:58.929Z,3.84
2023-04-16T02:07:25.242Z,3.76
2023-04-16T02:09:51.554Z,3.98
2023-04-16T02:12:17.855Z,3.98
2023-04-16T02:14:44.157Z,4.34
2023-04-16T02:17:10.464Z,4.63
2023-04-16T02:19:36.763Z,4.51
2023-04-16T02:22:03.062Z,4.90
2023-04-16T02:24:29.396Z,4.48
2023-04-16T02:26:55.691Z,4.69
2023-04-16T02:29:21.986Z,5.02
2023-04-16T02:31:48.394Z,4.98
2023-04-16T02:34:14.714Z,4.55
2023-04-16T02:36:41.013Z,4.61
2023-04-16T02:39:07.472Z,4.64
2023-04-16T02:41:33.920Z,4.69
2023-04-16T02:44:00.238Z,4.65
2023-04-16T02:46:26.596Z,4.76
2023-04-16T02:48:52.950Z,4.96
2023-04-16T02:51:19.258Z,4.84
2023-04-16T02:53:45.569Z,4.64
2023-04-16T02:56:11.866Z,4.65
2023-04-16T02:58:38.162Z,4.64
2023-04-16T03:01:04.545Z,4.62
2023-04-16T03:03:30.860Z,4.46
2023-04-16T03:05:57.151Z,4.76
2023-04-16T03:08:23.510Z,4.39
2023-04-16T03:10:49.813Z,4.66
2023-04-16T03:13:16.112Z,4.78
2023-04-16T03:15:42.454Z,4.80
2023-04-16T03:18:08.784Z,5.49
2023-04-16T03:20:35.108Z,5.11
2023-04-16T03:23:01.413Z,5.14
2023-04-16T03:25:27.711Z,5.27
2023-04-16T03:27:54.012Z,4.91
2023-04-16T03:30:20.378Z,4.82
2023-04-16T03:32:46.705Z,5.27
2023-04-16T03:35:13.029Z,4.56
2023-04-16T03:37:39.352Z,5.11
2023-04-16T03:40:05.667Z,5.14
2023-04-16T03:42:31.991Z,4.73
2023-04-16T03:44:58.304Z,5.02
2023-04-16T03:47:24.635Z,5.15
2023-04-16T03:49:50.968Z,5.46
2023-04-16T03:52:17.287Z,5.16
2023-04-16T03:54:43.583Z,4.82
2023-04-16T03:57:09.890Z,4.79
2023-04-16T03:59:36.199Z,5.00
2023-04-16T04:02:02.546Z,5.18
2023-04-16T04:04:29.021Z,5.01
2023-04-16T04:06:55.385Z,5.13
2023-04-16T04:09:21.704Z,4.92
2023-04-16T04:11:48.009Z,4.32
2023-04-16T04:14:14.328Z,4.56
2023-04-16T04:16:40.799Z,4.67
2023-04-16T04:19:07.448Z,4.46
2023-04-16T04:21:34.125Z,4.94
2023-04-16T04:24:00.433Z,5.50
2023-04-16T04:26:26.795Z,5.18
2023-04-16T04:28:53.161Z,5.03
2023-04-16T04:31:19.512Z,5.24
2023-04-16T04:33:45.822Z,5.36
2023-04-16T04:36:12.181Z,5.25
2023-04-16T04:38:38.577Z,5.72
2023-04-16T04:41:04.882Z,5.30
2023-04-16T04:43:31.194Z,5.64
2023-04-16T04:45:57.527Z,5.57
2023-04-16T04:48:23.863Z,5.89
2023-04-16T04:50:50.176Z,6.20
2023-04-16T04:53:16.510Z,6.18
2023-04-16T04:55:42.809Z,6.12
2023-04-16T04:58:09.144Z,6.57
2023-04-16T05:00:35.451Z,6.12
2023-04-16T05:03:01.846Z,6.07
2023-04-16T05:05:28.292Z,6.07
2023-04-16T05:07:54.625Z,5.71
2023-04-16T05:10:20.946Z,6.00
2023-04-16T05:12:48.890Z,5.86
2023-04-16T05:15:15.411Z,5.97
2023-04-16T05:17:41.728Z,6.04
2023-04-16T05:20:08.099Z,6.44
2023-04-16T05:22:34.407Z,6.12
2023-04-16T05:25:00.722Z,6.01
2023-04-16T05:27:27.039Z,6.06
2023-04-16T05:29:53.330Z,5.88
2023-04-16T05:32:19.630Z,5.48
2023-04-16T05:34:45.982Z,5.57
2023-04-16T05:37:12.278Z,5.97
2023-04-16T05:39:38.614Z,5.99
2023-04-16T05:42:04.978Z,5.74
2023-04-16T05:44:31.265Z,6.10
2023-04-16T05:46:57.578Z,6.31
2023-04-16T05:49:23.892Z,6.28
2023-04-16T05:51:50.982Z,6.86
2023-04-16T05:54:17.460Z,6.23
2023-04-16T05:56:43.779Z,6.58
2023-04-16T05:59:10.290Z,6.94
2023-04-16T06:01:36.756Z,7.21
2023-04-16T06:04:03.179Z,7.95
2023-04-16T06:06:29.532Z,8.62
2023-04-16T06:08:55.838Z,7.75
2023-04-16T06:11:22.155Z,7.24
2023-04-16T06:13:48.444Z,6.92
2023-04-16T06:16:14.823Z,7.23
2023-04-16T06:18:41.229Z,7.03
2023-04-16T06:21:07.564Z,7.10
2023-04-16T06:23:33.874Z,7.24
2023-04-16T06:26:00.191Z,7.53
2023-04-16T06:28:26.485Z,9.41
2023-04-16T06:30:52.774Z,10.16
2023-04-16T06:33:19.082Z,9.89
2023-04-16T06:35:45.378Z,9.27
2023-04-16T06:38:11.747Z,8.67
2023-04-16T06:40:38.055Z,7.64
2023-04-16T06:43:04.380Z,6.91
2023-04-16T06:45:30.685Z,6.40
2023-04-16T06:47:57.091Z,6.07
2023-04-16T06:50:23.454Z,6.46
2023-04-16T06:52:49.742Z,6.55
2023-04-16T06:55:16.058Z,6.30
2023-04-16T06:57:42.368Z,6.28
2023-04-16T07:00:08.675Z,6.67
2023-04-16T07:02:35.219Z,6.96
2023-04-16T07:05:01.710Z,6.64
2023-04-16T07:07:28.018Z,7.14
2023-04-16T07:09:54.356Z,7.13
2023-04-16T07:12:22.498Z,7.63
2023-04-16T07:14:49.172Z,7.78
2023-04-16T07:17:15.506Z,7.69
2023-04-16T07:19:41.796Z,7.62
2023-04-16T07:22:08.170Z,7.28
2023-04-16T07:24:34.485Z,8.05
2023-04-16T07:27:00.805Z,7.87
2023-04-16T07:29:27.095Z,7.87
2023-04-16T07:31:53.428Z,8.29
2023-04-16T07:34:19.741Z,8.08
2023-04-16T07:36:46.061Z,7.84
2023-04-16T07:39:12.580Z,8.04
2023-04-16T07:41:38.936Z,7.74
2023-04-16T07:44:05.255Z,7.66
2023-04-16T07:46:43.615Z,8.14
2023-04-16T07:49:12.326Z,8.30
2023-04-16T07:51:38.687Z,8.51
2023-04-16T07:54:04.987Z,8.62
2023-04-16T07:56:31.297Z,8.29
2023-04-16T07:59:02.841Z,7.90
2023-04-16T08:01:34.538Z,8.05
2023-04-16T08:04:01.107Z,8.08
2023-04-16T08:06:27.490Z,8.02
2023-04-16T08:08:53.777Z,8.09
2023-04-16T08:11:20.092Z,7.89
2023-04-16T08:13:46.388Z,7.94
2023-04-16T08:16:12.702Z,8.08
2023-04-16T08:18:39.068Z,7.56
2023-04-16T08:21:05.378Z,8.08
2023-04-16T08:23:31.673Z,7.94
2023-04-16T08:25:57.998Z,8.75
2023-04-16T08:28:24.301Z,9.31
2023-04-16T08:30:50.616Z,9.03
2023-04-16T08:33:16.952Z,9.12
2023-04-16T08:35:43.257Z,8.96
2023-04-16T08:38:09.555Z,8.68
2023-04-16T08:40:35.877Z,8.47
2023-04-16T08:43:02.166Z,8.55
2023-04-16T08:45:28.460Z,8.65
2023-04-16T08:47:54.853Z,8.82
2023-04-16T08:50:21.224Z,9.14
2023-04-16T08:52:47.551Z,8.65
2023-04-16T08:55:13.949Z,8.88
2023-04-16T08:57:40.244Z,8.49
2023-04-16T09:00:06.535Z,8.22
2023-04-16T09:02:33.034Z,7.99
2023-04-16T09:04:59.711Z,7.73
2023-04-16T09:07:26.084Z,8.08
2023-04-16T09:09:52.393Z,7.84
2023-04-16T09:12:18.676Z,7.61
2023-04-16T09:14:44.973Z,7.06
2023-04-16T09:17:11.310Z,7.77
2023-04-16T09:19:37.619Z,7.87
2023-04-16T09:22:03.935Z,7.39
2023-04-16T09:24:30.243Z,7.57
2023-04-16T09:26:56.533Z,7.51
2023-04-16T09:29:22.832Z,7.69
2023-04-16T09:31:49.168Z,7.78
2023-04-16T09:34:15.512Z,7.68
2023-04-16T09:36:41.819Z,7.65
2023-04-16T09:39:08.295Z,8.11
2023-04-16T09:41:34.734Z,7.73
2023-04-16T09:44:01.045Z,7.94
2023-04-16T09:46:27.446Z,8.23
2023-04-16T09:48:53.815Z,8.48
2023-04-16T09:51:20.111Z,8.50
2023-04-16T09:53:46.435Z,7.26
2023-04-16T09:56:12.733Z,7.54
2023-04-16T09:58:39.038Z,8.15
2023-04-16T10:01:05.422Z,8.00
2023-04-16T10:03:31.923Z,7.66
2023-04-16T10:05:58.321Z,7.68
2023-04-16T10:08:24.631Z,7.26
2023-04-16T10:10:50.929Z,7.26
2023-04-16T10:13:17.228Z,7.55
2023-04-16T10:15:43.532Z,7.70
2023-04-16T10:18:09.954Z,7.83
2023-04-16T10:20:36.294Z,7.60
2023-04-16T10:23:02.594Z,7.49
2023-04-16T10:25:28.890Z,8.15
2023-04-16T10:27:55.193Z,7.95
2023-04-16T10:30:21.508Z,8.19
2023-04-16T10:32:47.838Z,8.15
2023-04-16T10:35:14.129Z,7.92
2023-04-16T10:37:40.512Z,8.09
2023-04-16T10:40:06.811Z,8.13
2023-04-16T10:42:33.093Z,7.59
2023-04-16T10:44:59.398Z,7.91
2023-04-16T10:47:25.701Z,8.15
2023-04-16T10:49:52.019Z,8.04
2023-04-16T10:52:18.341Z,7.80
2023-04-16T10:54:44.627Z,8.00
2023-04-16T10:57:10.930Z,8.22
2023-04-16T10:59:37.246Z,8.27
2023-04-16T11:02:03.673Z,8.49
2023-04-16T11:04:30.096Z,8.50
2023-04-16T11:06:56.570Z,7.97
2023-04-16T11:09:22.865Z,8.24
2023-04-16T11:11:49.185Z,7.65
2023-04-16T11:14:15.509Z,7.82
2023-04-16T11:16:41.841Z,8.40
2023-04-16T11:19:08.204Z,8.50
2023-04-16T11:21:34.537Z,8.45
2023-04-16T11:24:00.817Z,8.22
2023-04-16T11:26:27.120Z,8.48
2023-04-16T11:28:53.446Z,7.98
2023-04-16T11:31:19.800Z,7.55
2023-04-16T11:33:46.143Z,7.36
2023-04-16T11:36:12.465Z,7.48
2023-04-16T11:38:38.773Z,7.30
2023-04-16T11:41:05.060Z,7.09
2023-04-16T11:43:31.353Z,7.21
2023-04-16T11:45:57.640Z,7.31
2023-04-16T11:48:23.951Z,7.20
2023-04-16T11:50:50.262Z,7.10
2023-04-16T11:53:16.560Z,7.15
2023-04-16T11:55:42.844Z,6.48
2023-04-16T11:58:09.155Z,7.10
2023-04-16T12:00:35.819Z,6.96
2023-04-16T12:03:02.230Z,7.15
2023-04-16T12:05:28.648Z,7.34
2023-04-16T12:07:54.944Z,6.96
2023-04-16T12:10:21.233Z,6.82
2023-04-16T12:12:47.577Z,6.63
2023-04-16T12:15:13.874Z,6.66
2023-04-16T12:17:40.253Z,6.67
2023-04-16T12:20:06.604Z,6.41
2023-04-16T12:22:34.655Z,6.50
2023-04-16T12:25:02.304Z,6.48
2023-04-16T12:27:28.667Z,6.84
2023-04-16T12:29:54.963Z,6.47
2023-04-16T12:32:21.273Z,6.47
2023-04-16T12:34:48.732Z,6.70
2023-04-16T12:37:16.024Z,6.80
2023-04-16T12:39:42.495Z,6.62
2023-04-16T12:42:08.821Z,6.74
2023-04-16T12:44:35.117Z,6.59
2023-04-16T12:47:01.417Z,6.40
2023-04-16T12:49:27.735Z,6.28
2023-04-16T12:51:54.035Z,6.08
2023-04-16T12:54:20.336Z,5.88
2023-04-16T12:56:46.673Z,5.67
2023-04-16T12:59:12.982Z,5.58
2023-04-16T13:01:39.364Z,6.25
2023-04-16T13:04:05.805Z,6.74
2023-04-16T13:06:32.204Z,6.24
2023-04-16T13:08:58.505Z,7.37
2023-04-16T13:11:24.828Z,7.06
2023-04-16T13:13:51.151Z,7.18
2023-04-16T13:16:17.499Z,7.08
2023-04-16T13:18:43.922Z,7.17
2023-04-16T13:21:10.223Z,7.18
2023-04-16T13:23:36.523Z,7.14
2023-04-16T13:26:02.840Z,6.54
2023-04-16T13:28:29.125Z,6.16
2023-04-16T13:30:55.472Z,6.33
2023-04-16T13:33:21.803Z,6.36
2023-04-16T13:35:48.105Z,6.48
2023-04-16T13:38:14.406Z,6.33
2023-04-16T13:40:40.725Z,6.34
2023-04-16T13:43:07.789Z,6.46
2023-04-16T13:45:34.175Z,6.64
2023-04-16T13:48:00.526Z,7.46
2023-04-16T13:50:26.856Z,6.98
2023-04-16T13:52:53.152Z,7.02
2023-04-16T13:55:19.475Z,6.98
2023-04-16T13:57:45.783Z,7.09
2023-04-16T14:00:13.369Z,7.45
2023-04-16T14:02:39.990Z,7.12
2023-04-16T14:05:06.459Z,7.60
2023-04-16T14:07:32.768Z,7.38
2023-04-16T14:09:59.092Z,7.18
2023-04-16T14:12:25.407Z,6.85
2023-04-16T14:14:51.699Z,6.89
2023-04-16T14:17:18.043Z,6.94
2023-04-16T14:19:44.348Z,7.20
2023-04-16T14:22:10.656Z,7.47
2023-04-16T14:24:37.005Z,7.29
2023-04-16T14:27:03.316Z,7.54
2023-04-16T14:29:29.633Z,7.23
2023-04-16T14:31:55.999Z,7.19
2023-04-16T14:34:22.333Z,7.03
2023-04-16T14:36:48.635Z,7.61
2023-04-16T14:39:14.968Z,6.85
2023-04-16T14:41:41.295Z,7.10
2023-04-16T14:44:07.616Z,6.67
2023-04-16T14:46:33.931Z,6.57
2023-04-16T14:49:00.222Z,6.53
2023-04-16T14:51:26.529Z,6.12
2023-04-16T14:53:52.838Z,6.26
2023-04-16T14:56:19.135Z,5.75
2023-04-16T14:58:45.453Z,5.97
2023-04-16T15:01:11.804Z,5.62
2023-04-16T15:03:38.328Z,5.98
2023-04-16T15:06:04.689Z,5.83
2023-04-16T15:08:31.027Z,6.32
2023-04-16T15:10:57.332Z,5.83
2023-04-16T15:13:23.653Z,5.66
2023-04-16T15:15:49.987Z,5.83
2023-04-16T15:18:16.288Z,5.91
2023-04-16T15:20:42.596Z,6.02
2023-04-16T15:23:08.904Z,5.94
2023-04-16T15:25:35.207Z,6.59
2023-04-16T15:28:01.509Z,6.14
2023-04-16T15:30:27.861Z,6.10
2023-04-16T15:32:54.220Z,5.76
2023-04-16T15:35:20.556Z,5.07
2023-04-16T15:37:46.867Z,5.80
2023-04-16T15:40:13.167Z,5.80
2023-04-16T15:42:39.466Z,5.61
2023-04-16T15:45:05.807Z,5.32
2023-04-16T15:47:32.238Z,4.75
2023-04-16T15:49:58.563Z,4.59
2023-04-16T15:52:24.876Z,4.75
2023-04-16T15:54:51.189Z,4.35
2023-04-16T15:57:17.498Z,4.49
2023-04-16T15:59:50.141Z,4.20
2023-04-16T16:02:26.154Z,3.81
2023-04-16T16:04:52.822Z,3.32
2023-04-16T16:07:19.344Z,2.86
2023-04-16T16:09:45.643Z,2.57
2023-04-16T16:12:11.959Z,2.50
2023-04-16T16:14:38.255Z,2.49
2023-04-16T16:17:04.560Z,2.38
2023-04-16T16:19:30.899Z,2.32
2023-04-16T16:21:57.182Z,2.08
2023-04-16T16:24:23.474Z,2.17
2023-04-16T16:26:49.794Z,2.27
2023-04-16T16:29:16.099Z,2.22
2023-04-16T16:31:42.430Z,2.65
2023-04-16T16:34:11.169Z,3.53
2023-04-16T16:36:43.325Z,4.03
2023-04-16T16:39:09.894Z,4.04
2023-04-16T16:41:36.358Z,3.53
2023-04-16T16:44:02.662Z,2.93
2023-04-16T16:46:29.001Z,2.89
2023-04-16T16:48:55.339Z,2.50
2023-04-16T16:51:21.643Z,2.44
2023-04-16T16:53:47.982Z,2.19
2023-04-16T16:56:14.288Z,2.00
2023-04-16T16:58:40.588Z,1.77
2023-04-16T17:01:06.957Z,1.66
2023-04-16T17:03:33.313Z,1.81
2023-04-16T17:05:59.616Z,1.95
2023-04-16T17:08:26.005Z,1.07
2023-04-16T17:10:52.308Z,1.04
2023-04-16T17:13:18.598Z,0.88
2023-04-16T17:15:44.905Z,1.16
2023-04-16T17:18:11.199Z,1.10
2023-04-16T17:20:37.515Z,1.03
2023-04-16T17:23:03.845Z,1.14
2023-04-16T17:25:30.132Z,1.12
2023-04-16T17:27:56.422Z,0.91
2023-04-16T17:30:22.730Z,1.08
2023-04-16T17:32:49.032Z,0.90
2023-04-16T17:35:15.348Z,1.01
2023-04-16T17:37:41.702Z,0.92
2023-04-16T17:40:08.007Z,0.92
2023-04-16T17:42:34.285Z,0.99
2023-04-16T17:45:00.619Z,1.07
2023-04-16T17:47:26.938Z,0.98
2023-04-16T17:49:53.235Z,0.82
2023-04-16T17:52:19.549Z,0.87
2023-04-16T17:54:45.829Z,1.01
2023-04-16T17:57:12.115Z,1.23
2023-04-16T17:59:38.452Z,1.41
2023-04-16T18:02:04.937Z,1.26
2023-04-16T18:04:31.396Z,1.26
2023-04-16T18:06:57.793Z,1.11
2023-04-16T18:09:24.089Z,1.25
2023-04-16T18:11:50.375Z,1.49
2023-04-16T18:14:16.837Z,1.51
2023-04-16T18:16:43.194Z,1.44
2023-04-16T18:19:09.483Z,1.49
2023-04-16T18:21:35.805Z,1.44
2023-04-16T18:24:02.095Z,1.75
2023-04-16T18:26:29.960Z,1.94
2023-04-16T18:28:56.504Z,2.28
2023-04-16T18:31:22.895Z,2.50
2023-04-16T18:33:57.513Z,2.08
2023-04-16T18:36:24.763Z,1.42
2023-04-16T18:39:00.796Z,1.64
2023-04-16T18:41:27.778Z,1.51
2023-04-16T18:43:54.078Z,1.49
2023-04-16T18:46:20.414Z,1.63
2023-04-16T18:48:46.762Z,1.60
2023-04-16T18:51:14.918Z,1.52
2023-04-16T18:53:42.515Z,1.78
2023-04-16T18:56:08.850Z,1.49
2023-04-16T18:58:35.137Z,1.83
2023-04-16T19:01:01.469Z,2.02
2023-04-16T19:03:27.922Z,2.13
2023-04-16T19:05:54.345Z,1.76
2023-04-16T19:08:20.635Z,1.59
2023-04-16T19:10:46.949Z,1.76
2023-04-16T19:13:13.242Z,2.05
2023-04-16T19:15:39.544Z,1.74
2023-04-16T19:18:05.866Z,1.62
2023-04-16T19:20:32.170Z,1.67
2023-04-16T19:22:58.472Z,1.79
2023-04-16T19:25:24.799Z,1.65
2023-04-16T19:27:51.107Z,1.76
2023-04-16T19:30:17.400Z,1.56
2023-04-16T19:32:43.729Z,1.83
2023-04-16T19:35:10.043Z,1.81
2023-04-16T19:37:36.350Z,2.07
2023-04-16T19:40:02.681Z,2.27
2023-04-16T19:42:28.996Z,2.19
2023-04-16T19:44:55.298Z,2.72
2023-04-16T19:47:21.659Z,2.75
2023-04-16T19:49:47.960Z,3.17
2023-04-16T19:52:14.260Z,3.92
2023-04-16T19:54:40.602Z,3.89
2023-04-16T19:57:06.927Z,3.85
2023-04-16T19:59:33.257Z,3.55
2023-04-16T20:01:59.638Z,3.17
2023-04-16T20:04:25.993Z,3.54
2023-04-16T20:06:52.346Z,3.59
2023-04-16T20:09:18.655Z,3.84
2023-04-16T20:11:44.946Z,3.75
2023-04-16T20:14:11.226Z,3.95
2023-04-16T20:16:37.787Z,4.07
2023-04-16T20:19:05.848Z,4.07
2023-04-16T20:21:34.349Z,4.29
2023-04-16T20:24:00.663Z,4.30
2023-04-16T20:26:26.964Z,4.17
2023-04-16T20:28:53.269Z,4.11
2023-04-16T20:31:19.698Z,3.84
2023-04-16T20:33:46.004Z,4.72
2023-04-16T20:36:12.303Z,4.44
2023-04-16T20:38:38.604Z,4.34
2023-04-16T20:41:04.893Z,4.42
2023-04-16T20:43:31.179Z,4.27
2023-04-16T20:45:57.526Z,4.33
2023-04-16T20:48:23.821Z,4.66
2023-04-16T20:50:50.125Z,4.92
2023-04-16T20:53:16.456Z,5.76
2023-04-16T20:55:42.741Z,5.71
2023-04-16T20:58:09.048Z,5.15
2023-04-16T21:00:35.344Z,4.50
2023-04-16T21:03:01.778Z,4.64
2023-04-16T21:05:28.245Z,4.55
2023-04-16T21:07:55.845Z,4.72
2023-04-16T21:10:22.244Z,4.66
2023-04-16T21:12:48.534Z,4.79
2023-04-16T21:15:14.850Z,4.59
2023-04-16T21:17:41.204Z,4.41
2023-04-16T21:20:07.533Z,4.43
2023-04-16T21:22:33.853Z,4.33
2023-04-16T21:25:00.169Z,4.45
2023-04-16T21:27:26.462Z,4.01
2023-04-16T21:29:52.771Z,4.06
2023-04-16T21:32:19.071Z,4.17
2023-04-16T21:34:45.357Z,4.06
2023-04-16T21:37:11.671Z,4.95
2023-04-16T21:39:37.971Z,5.08
2023-04-16T21:42:04.273Z,4.77
2023-04-16T21:44:30.617Z,4.66
2023-04-16T21:46:56.986Z,4.23
2023-04-16T21:49:23.290Z,3.93
2023-04-16T21:51:49.606Z,4.59
2023-04-16T21:54:15.897Z,4.82
2023-04-16T21:56:42.208Z,4.12
2023-04-16T21:59:08.732Z,4.55
2023-04-16T22:01:35.230Z,4.00
2023-04-16T22:04:01.693Z,3.70
2023-04-16T22:06:28.100Z,3.59
2023-04-16T22:08:54.511Z,3.81
2023-04-16T22:11:20.809Z,3.97
2023-04-16T22:13:47.133Z,3.63
2023-04-16T22:16:13.502Z,3.83
2023-04-16T22:18:39.829Z,3.86
2023-04-16T22:21:06.154Z,3.92
2023-04-16T22:23:32.447Z,3.90
2023-04-16T22:25:58.751Z,3.98
2023-04-16T22:28:25.077Z,4.65
2023-04-16T22:30:51.369Z,4.75
2023-04-16T22:33:17.703Z,4.33
2023-04-16T22:35:44.045Z,4.10
2023-04-16T22:38:10.382Z,3.94
2023-04-16T22:40:36.712Z,3.98
2023-04-16T22:43:03.040Z,4.24
2023-04-16T22:45:29.341Z,3.97
2023-04-16T22:47:55.706Z,3.67
2023-04-16T22:50:22.056Z,3.99
2023-04-16T22:52:48.334Z,3.92
2023-04-16T22:55:14.632Z,3.91
2023-04-16T22:57:40.951Z,3.77
2023-04-16T23:00:07.242Z,3.98
2023-04-16T23:02:33.642Z,3.82
2023-04-16T23:05:00.029Z,3.97
2023-04-16T23:07:26.313Z,3.92
2023-04-16T23:09:52.613Z,4.10
2023-04-16T23:12:18.921Z,4.07
2023-04-16T23:14:45.214Z,4.09
2023-04-16T23:17:11.515Z,4.24
2023-04-16T23:19:37.853Z,4.47
2023-04-16T23:22:04.140Z,4.05
2023-04-16T23:24:30.425Z,4.03
2023-04-16T23:26:56.732Z,3.96
2023-04-16T23:29:23.023Z,3.55
2023-04-16T23:31:49.414Z,3.55
2023-04-16T23:34:15.827Z,3.41
2023-04-16T23:36:42.133Z,3.04
2023-04-16T23:39:08.450Z,3.22
2023-04-16T23:41:34.767Z,3.27
2023-04-16T23:44:01.079Z,3.91
2023-04-16T23:46:27.402Z,4.17
2023-04-16T23:48:53.740Z,3.87
2023-04-16T23:51:20.047Z,3.81
2023-04-16T23:53:46.331Z,3.47
2023-04-16T23:56:12.646Z,3.43
2023-04-16T23:58:38.926Z,3.39
